x

Tanner Bank - 121nm West Of San Diego, Ca (46047) Wave Buoy

2:50am - Sat 29th Apr 2017 All times are PDT. -7 hours from GMT.

  • Sig Wave height 10.8ft
  • Swell Direction
  • Peak Period 9s
  • Average Period 7s
  • Wind
    20mph, 25mph gusts
  • Sea Temp 56°f
  • 空気 Temp 56°f
  • Sea Pressure 1011.2mb
  • Tanner Bank - 121nm West Of San Diego, Ca
  • Tanner Bank - 121nm West Of San Diego, Ca

More Historic Weather Station data

Upgrade to MSW Pro to gain access to the past 30 days of data for over 8000 Wavebouys and Weather Stations around the globe.

Join Pro

Comparision Forecast

View Surf forecast
   
Sat 04/29 2:50am 11ft 9s 7s 20 25 mph 1011.2mb 56f 56f
1:50am 12ft 10s 7s 22 27 mph 1011.3mb 56f 56f
12:50am 11ft 10s 7s 22 27 mph 1010.9mb 56f 57f
Fri 04/28 11:50pm 12.5ft 10s 7s 25 31 mph 1010.4mb 56f 57f
10:50pm 11ft 9s 7s 31 38 mph 1009.7mb 56f 57f
9:50pm 12.5ft 10s 7s 22 29 mph 1010.6mb 56f 57f
8:50pm 11.5ft 10s 7s 25 29 mph 1010mb 56f 58f
7:50pm 12ft 11s 7s 31 38 mph 1008.5mb 56f 57f
6:50pm 11ft 10s 7s 31 38 mph 1008.6mb 56f 57f
5:50pm 11ft 9s 7s 29 36 mph 1009.3mb 56f 57f
4:50pm 12.5ft 9s 7s 29 34 mph 1009.1mb 56f 57f
3:50pm 12ft 10s 7s 25 31 mph 1009.9mb 56f 58f
2:50pm 13.5ft 8s 7s 27 31 mph 1010.4mb 56f 57f
1:50pm 13.5ft 10s 7s 31 36 mph 1010.5mb 56f 57f
12:50pm 13.5ft 10s 7s 29 36 mph 1011mb 56f 57f
11:50am 13.5ft 9s 7s 29 40 mph 1011.2mb 56f 56f
10:50am 14ft 10s 7s 29 38 mph 1011.1mb 56f 56f
9:50am 14.5ft 10s 7s 31 38 mph 1011.1mb 56f 56f
8:50am 13ft 10s 7s 34 43 mph 1010.5mb 56f 57f
7:50am 14.5ft 10s 7s 31 38 mph 1010.8mb 56f 57f
6:50am 13.5ft 11s 7s 31 40 mph 1010.3mb 56f 57f
4:50am 15ft 9s  -  31 38 mph 1009.4mb 56f 57f
3:50am 13.5ft 10s 7s 31 38 mph 1009.4mb 56f 57f
2:50am 14ft 9s 7s 34 40 mph 1009.1mb 56f 58f
1:50am 14.5ft 10s 7s 29 36 mph 1009.6mb 56f 58f
12:50am 12.5ft 9s 7s 31 38 mph 1009.8mb 56f 58f
Thu 04/27 11:50pm 12.5ft 8s 7s 34 40 mph 1009.4mb 56f 58f
10:50pm 15ft 9s 7s 31 38 mph 1010.1mb 56f 58f
9:50pm 12ft 9s 7s 34 40 mph 1009.6mb 56f 58f
8:50pm 11ft 9s 7s 31 38 mph 1009.5mb 56f 59f
7:50pm 12ft 8s 7s 31 40 mph 1009.1mb 56f 59f
6:50pm 12ft 9s 7s 29 34 mph 1009.3mb 56f 59f
4:50pm 13ft 9s 7s 31 38 mph 1009.2mb 57f 58f
3:50pm 11.5ft 9s 7s 27 36 mph 1010mb 57f 58f
2:50pm 11ft 9s 7s 29 36 mph 1010.3mb 57f 58f
1:50pm 11.5ft 9s 7s 27 31 mph 1010.9mb 57f 57f
12:50pm 12.5ft 9s 7s 31 38 mph 1010.7mb 57f 57f
11:50am 12ft 9s 7s 31 38 mph 1011.4mb 57f 57f
10:50am 12.5ft 9s 7s 31 38 mph 1011.5mb 57f 56f
9:50am 11ft 9s 7s 31 36 mph 1011.4mb 57f 56f
8:50am 12ft 8s 7s 31 38 mph 1011.4mb 57f 56f
7:50am 12ft 8s 7s 36 43 mph 1010.9mb 57f 56f
6:50am 11ft 9s 6s 34 40 mph 1010.7mb 57f 56f
5:50am 10.5ft 8s 6s 29 36 mph 1011mb 58f 56f
4:50am 12ft 8s 7s 29 38 mph 1011.3mb 58f 56f
3:50am 11ft 8s 6s 31 38 mph 1011.5mb 58f 57f
2:50am 11ft 8s 7s 27 36 mph 1011.9mb 58f 57f
1:50am 11ft 8s 7s 29 38 mph 1012.4mb 57f 57f
12:50am 11ft 8s 6s 31 38 mph 1012.6mb 57f 57f
Wed 04/26 11:50pm 11.5ft 9s 7s 31 40 mph 1012.7mb 57f 57f
10:50pm 12ft 8s 7s 31 40 mph 1012.3mb 57f 57f
9:50pm 12ft 8s 6s 31 40 mph 1012.2mb 57f 57f
8:50pm 12ft 8s 7s 29 38 mph 1012.1mb 57f 57f
7:50pm 10.5ft 8s 6s 27 36 mph 1011.7mb 57f 58f
6:50pm 11ft 8s 6s 29 38 mph 1011.7mb 57f 58f
4:50pm 10ft 8s 6s 29 36 mph 1012mb 57f 59f
3:50pm 10.5ft 8s 6s 27 34 mph 1012.8mb 57f 58f
2:50pm 10ft 8s 6s 29 34 mph 1013.2mb 57f 58f
1:50pm 11ft 9s 7s 27 31 mph 1013.4mb 57f 58f
12:50pm 12.5ft 8s 7s 25 29 mph 1013.9mb 57f 57f
11:50am 12.5ft 10s 7s 25 31 mph 1014.5mb 57f 57f
10:50am 10.5ft 9s 7s 22 27 mph 1014.6mb 57f 58f
9:50am 10ft 8s 7s 25 31 mph 1014mb 57f 57f
8:50am 11.5ft 9s 7s 22 27 mph 1013.9mb 58f 58f
7:50am 10ft 10s 7s 22 27 mph 1013.3mb 58f 58f
6:50am 11ft 9s 7s 22 27 mph 1012.8mb 58f 58f
5:50am 11ft 9s 7s 25 29 mph 1012.5mb 58f 58f
4:50am 11ft 9s 7s 27 31 mph 1012.5mb 58f 58f
3:50am 12ft 9s 7s 29 34 mph 1012.5mb 58f 57f
2:50am 12ft 9s 7s 29 36 mph 1012.6mb 58f 57f
1:50am 12.5ft 9s 7s 25 31 mph 1013.5mb 58f 58f
12:50am 13ft 9s 7s 29 36 mph 1013.7mb 57f 58f
Tue 04/25 11:50pm 14ft 9s 7s 31 36 mph 1013.8mb 57f 58f
10:50pm 13ft 8s 7s 31 38 mph 1014mb 57f 58f
9:50pm 14ft 9s 7s 25 29 mph 1014.8mb 57f 58f
8:50pm 13.5ft 8s 7s 29 38 mph 1013.3mb 57f 58f
7:50pm 13ft 8s 7s 31 36 mph 1013.1mb 57f 58f
6:50pm 12.5ft 8s 7s 31 38 mph 1012.8mb 57f 58f
5:50pm 13.5ft 8s 7s 29 34 mph 1013.3mb 57f 58f
4:50pm 12ft 8s 7s 31 40 mph 1013.3mb 57f 58f
3:50pm 13ft 8s 7s 29 38 mph 1013.9mb 57f 57f
2:50pm 11ft 9s 7s 31 40 mph 1013.9mb 57f 57f
1:50pm 12ft 8s 7s 34 40 mph 1014.4mb 57f 57f
12:50pm 12ft 9s 7s 31 38 mph 1015mb 57f 57f
11:50am 11.5ft 8s 7s 31 38 mph 1015.6mb 57f 57f